CES220 EDDF-ZSPD
Flight info
| Callsign | CES220 |
|---|---|
| Flight time | N/A |
| Altitude | 33000 |
| Route | TOBAK8F/25C TOBAK N858 FEDZA Y172 MAG DCT BINKA N746 GORPI DCT KOLJA DCT EVONA DCT NETNA DCT TUKMA P989 MEGAS/K0869F330 P989 OBIBA P997 AKUGI/K0880F350 T635 SADER T580 ADMUR/K0883F370 G117 XV R229 BA R104 ABK A308 TR P982 DARNO/K0880S1190 A575 UDA Y345 POLHO W33 NUVPU W52 MUDAM G212 SOTMU W98 ELKUR W40 YQG W142 DALIM A593 DPX A470 DALNU W166 ZJ W167 SASAN SAS82A |
| Aircraft | B77W/H-SDE1E2E3FGHIJ2J3J4J5M1RWXY/LB1D1 |
Departure
| Time | 2026-05-06 18:56 |
|---|---|
| Airport | Frankfurt Main Airport (EDDF) |
Arrival
| Time | N/A |
|---|---|
| Airport | Shanghai Pudong International Airport (ZSPD) |
| Time | Latitude | Longitude | Altitude | Speed | Heading |
|---|---|---|---|---|---|
| 2026-05-06 18:25 | 50.03061 | 8.57331 | 361 ft | 0 kts | 25° |
| 2026-05-06 18:43 | 50.03043 | 8.57318 | 370 ft | 4 kts | 24° |
| 2026-05-06 18:43 | 50.03019 | 8.57301 | 367 ft | 4 kts | 24° |
| 2026-05-06 18:44 | 50.02999 | 8.57288 | 367 ft | 4 kts | 12° |
| 2026-05-06 18:44 | 50.02975 | 8.57289 | 365 ft | 4 kts | 324° |
| 2026-05-06 18:44 | 50.02960 | 8.57318 | 367 ft | 4 kts | 295° |
| 2026-05-06 18:44 | 50.02948 | 8.57356 | 364 ft | 4 kts | 295° |
| 2026-05-06 18:45 | 50.02938 | 8.57390 | 367 ft | 1 kts | 295° |
| 2026-05-06 18:45 | 50.02938 | 8.57391 | 367 ft | 2 kts | 295° |
| 2026-05-06 18:47 | 50.02947 | 8.57360 | 364 ft | 9 kts | 295° |
| 2026-05-06 18:47 | 50.02985 | 8.57236 | 363 ft | 14 kts | 295° |
| 2026-05-06 18:47 | 50.03024 | 8.57103 | 364 ft | 13 kts | 294° |
| 2026-05-06 18:47 | 50.03062 | 8.56981 | 364 ft | 9 kts | 305° |
| 2026-05-06 18:48 | 50.03113 | 8.56926 | 365 ft | 9 kts | 338° |
| 2026-05-06 18:48 | 50.03171 | 8.56891 | 365 ft | 9 kts | 339° |
| 2026-05-06 18:48 | 50.03184 | 8.56884 | 364 ft | 0 kts | 339° |
| 2026-05-06 18:49 | 50.03186 | 8.56883 | 364 ft | 2 kts | 339° |
| 2026-05-06 18:49 | 50.03231 | 8.56857 | 364 ft | 12 kts | 339° |
| 2026-05-06 18:49 | 50.03299 | 8.56895 | 362 ft | 13 kts | 58° |
| 2026-05-06 18:49 | 50.03343 | 8.57076 | 362 ft | 23 kts | 70° |
| 2026-05-06 18:50 | 50.03403 | 8.57330 | 363 ft | 25 kts | 69° |
| 2026-05-06 18:50 | 50.03455 | 8.57543 | 363 ft | 14 kts | 69° |
| 2026-05-06 18:50 | 50.03488 | 8.57682 | 365 ft | 14 kts | 69° |
| 2026-05-06 18:50 | 50.03522 | 8.57825 | 370 ft | 14 kts | 70° |
| 2026-05-06 18:51 | 50.03557 | 8.57972 | 366 ft | 14 kts | 70° |
| 2026-05-06 18:51 | 50.03615 | 8.58086 | 370 ft | 15 kts | 10° |
| 2026-05-06 18:51 | 50.03663 | 8.58072 | 367 ft | 4 kts | 342° |
| 2026-05-06 18:51 | 50.03692 | 8.58056 | 371 ft | 6 kts | 341° |
| 2026-05-06 18:52 | 50.03761 | 8.58017 | 371 ft | 17 kts | 340° |
| 2026-05-06 18:52 | 50.03907 | 8.57934 | 373 ft | 25 kts | 339° |
| 2026-05-06 18:52 | 50.04023 | 8.57868 | 375 ft | 10 kts | 347° |
| 2026-05-06 18:52 | 50.04077 | 8.57929 | 378 ft | 10 kts | 63° |
| 2026-05-06 18:53 | 50.04104 | 8.58035 | 377 ft | 11 kts | 69° |
| 2026-05-06 18:53 | 50.04138 | 8.58175 | 373 ft | 19 kts | 70° |
| 2026-05-06 18:53 | 50.04203 | 8.58448 | 376 ft | 34 kts | 70° |
| 2026-05-06 18:53 | 50.04274 | 8.58614 | 374 ft | 13 kts | 16° |
| 2026-05-06 18:54 | 50.04359 | 8.58630 | 374 ft | 2 kts | 5° |
| 2026-05-06 18:54 | 50.04368 | 8.58631 | 374 ft | 6 kts | 5° |
| 2026-05-06 18:55 | 50.04430 | 8.58641 | 375 ft | 5 kts | 6° |
| 2026-05-06 18:55 | 50.04464 | 8.58633 | 378 ft | 6 kts | 325° |
| 2026-05-06 18:55 | 50.04472 | 8.58527 | 378 ft | 15 kts | 254° |
| 2026-05-06 18:55 | 50.04388 | 8.58169 | 376 ft | 69 kts | 249° |
| 2026-05-06 18:56 | 50.04134 | 8.57107 | 372 ft | 139 kts | 250° |
| 2026-05-06 18:56 | 50.03878 | 8.56036 | 378 ft | 175 kts | 250° |
| 2026-05-06 18:56 | 50.03441 | 8.54272 | 928 ft | 182 kts | 250° |
| 2026-05-06 18:56 | 50.02982 | 8.52443 | 1726 ft | 180 kts | 251° |
| 2026-05-06 18:57 | 50.02660 | 8.50551 | 2240 ft | 187 kts | 273° |
| 2026-05-06 18:57 | 50.02843 | 8.48512 | 2422 ft | 206 kts | 279° |
| 2026-05-06 18:57 | 50.03026 | 8.46271 | 2950 ft | 216 kts | 277° |
| 2026-05-06 18:57 | 50.03205 | 8.43913 | 3581 ft | 220 kts | 277° |
| 2026-05-06 18:58 | 50.03705 | 8.41682 | 4085 ft | 227 kts | 308° |
| 2026-05-06 18:58 | 50.04986 | 8.40051 | 4315 ft | 250 kts | 323° |
| 2026-05-06 18:58 | 50.06431 | 8.38448 | 4873 ft | 260 kts | 320° |
| 2026-05-06 18:58 | 50.07893 | 8.36720 | 5571 ft | 267 kts | 320° |
| 2026-05-06 18:59 | 50.09373 | 8.34961 | 6341 ft | 269 kts | 319° |
| 2026-05-06 18:59 | 50.10918 | 8.33300 | 6991 ft | 275 kts | 333° |
| 2026-05-06 18:59 | 50.12816 | 8.32820 | 7559 ft | 288 kts | 7° |
| 2026-05-06 18:59 | 50.14754 | 8.33645 | 8232 ft | 291 kts | 15° |
| 2026-05-06 19:00 | 50.16708 | 8.34599 | 8860 ft | 297 kts | 15° |
| 2026-05-06 19:00 | 50.18698 | 8.35556 | 9577 ft | 299 kts | 15° |
| 2026-05-06 19:00 | 50.20695 | 8.36514 | 9865 ft | 303 kts | 15° |
| 2026-05-06 19:00 | 50.22722 | 8.37480 | 9845 ft | 305 kts | 15° |
| 2026-05-06 19:01 | 50.24780 | 8.38457 | 9912 ft | 317 kts | 15° |
| 2026-05-06 19:01 | 50.26962 | 8.39490 | 10100 ft | 339 kts | 15° |
| 2026-05-06 19:01 | 50.29238 | 8.40751 | 10214 ft | 357 kts | 27° |
| 2026-05-06 19:01 | 50.31268 | 8.43162 | 10344 ft | 374 kts | 43° |
| 2026-05-06 19:02 | 50.33183 | 8.46008 | 10814 ft | 385 kts | 43° |
| 2026-05-06 19:02 | 50.35174 | 8.48879 | 11500 ft | 393 kts | 42° |
| 2026-05-06 19:02 | 50.37213 | 8.51756 | 12334 ft | 396 kts | 41° |
| 2026-05-06 19:02 | 50.39282 | 8.54641 | 13233 ft | 400 kts | 41° |
| 2026-05-06 19:03 | 50.41356 | 8.57602 | 14074 ft | 405 kts | 45° |
| 2026-05-06 19:03 | 50.43232 | 8.61006 | 14838 ft | 410 kts | 53° |
| 2026-05-06 19:03 | 50.44763 | 8.64739 | 15568 ft | 414 kts | 60° |
| 2026-05-06 19:03 | 50.46195 | 8.68588 | 16287 ft | 418 kts | 60° |
| 2026-05-06 19:04 | 50.47672 | 8.72551 | 17010 ft | 423 kts | 59° |
| 2026-05-06 19:04 | 50.49167 | 8.76551 | 17750 ft | 427 kts | 59° |
| 2026-05-06 19:04 | 50.50689 | 8.80608 | 18439 ft | 432 kts | 59° |
| 2026-05-06 19:04 | 50.52221 | 8.84682 | 19071 ft | 435 kts | 59° |
| 2026-05-06 19:05 | 50.53772 | 8.88801 | 19736 ft | 439 kts | 59° |
| 2026-05-06 19:05 | 50.55339 | 8.92963 | 20240 ft | 447 kts | 59° |
| 2026-05-06 19:05 | 50.56935 | 8.97205 | 20736 ft | 453 kts | 59° |
| 2026-05-06 19:05 | 50.58542 | 9.01487 | 21387 ft | 455 kts | 59° |
| 2026-05-06 19:06 | 50.60154 | 9.05784 | 22056 ft | 457 kts | 59° |
| 2026-05-06 19:06 | 50.61777 | 9.10122 | 22669 ft | 461 kts | 59° |
| 2026-05-06 19:06 | 50.63391 | 9.14441 | 23223 ft | 465 kts | 59° |
| 2026-05-06 19:06 | 50.65033 | 9.18842 | 23711 ft | 469 kts | 60° |
| 2026-05-06 19:07 | 50.66697 | 9.23313 | 24208 ft | 472 kts | 60° |
| 2026-05-06 19:07 | 50.68347 | 9.27777 | 24705 ft | 474 kts | 60° |
| 2026-05-06 19:07 | 50.70004 | 9.32289 | 25187 ft | 477 kts | 60° |
| 2026-05-06 19:07 | 50.71675 | 9.36838 | 25663 ft | 480 kts | 60° |
| 2026-05-06 19:08 | 50.73354 | 9.41399 | 26121 ft | 482 kts | 60° |
| 2026-05-06 19:08 | 50.75039 | 9.45972 | 26584 ft | 484 kts | 61° |
| 2026-05-06 19:08 | 50.76740 | 9.50584 | 27022 ft | 487 kts | 61° |
| 2026-05-06 19:08 | 50.78447 | 9.55218 | 27430 ft | 490 kts | 61° |
| 2026-05-06 19:09 | 50.80170 | 9.59901 | 27830 ft | 493 kts | 61° |
| 2026-05-06 19:09 | 50.81894 | 9.64598 | 28214 ft | 495 kts | 61° |
| 2026-05-06 19:09 | 50.83622 | 9.69318 | 28591 ft | 498 kts | 62° |
| 2026-05-06 19:09 | 50.85364 | 9.74080 | 28769 ft | 503 kts | 62° |
| 2026-05-06 19:10 | 50.87122 | 9.78901 | 28812 ft | 504 kts | 62° |
| 2026-05-06 19:10 | 50.90337 | 9.87731 | 28791 ft | 499 kts | 62° |
| 2026-05-06 19:11 | 50.93247 | 9.95757 | 28790 ft | 501 kts | 62° |
| 2026-05-06 19:11 | 50.96885 | 10.05018 | 28805 ft | 506 kts | 54° |
| 2026-05-06 19:12 | 51.01513 | 10.13159 | 28812 ft | 508 kts | 46° |
| 2026-05-06 19:12 | 51.06015 | 10.20409 | 28805 ft | 509 kts | 46° |
| 2026-05-06 19:13 | 51.10491 | 10.27708 | 28796 ft | 509 kts | 46° |
| 2026-05-06 19:13 | 51.12956 | 10.31765 | 28913 ft | 511 kts | 46° |
| 2026-05-06 19:13 | 51.15397 | 10.35804 | 29280 ft | 512 kts | 47° |
| 2026-05-06 19:13 | 51.17862 | 10.39898 | 29793 ft | 510 kts | 47° |
| 2026-05-06 19:14 | 51.20311 | 10.43974 | 30266 ft | 508 kts | 47° |
| 2026-05-06 19:14 | 51.22751 | 10.48040 | 30679 ft | 507 kts | 47° |
| 2026-05-06 19:14 | 51.25167 | 10.52074 | 31040 ft | 507 kts | 47° |
| 2026-05-06 19:14 | 51.27615 | 10.56167 | 31298 ft | 509 kts | 47° |
| 2026-05-06 19:15 | 51.30068 | 10.60274 | 31507 ft | 512 kts | 47° |
| 2026-05-06 19:15 | 51.32538 | 10.64415 | 31837 ft | 513 kts | 47° |
| 2026-05-06 19:15 | 51.34998 | 10.68546 | 32258 ft | 511 kts | 47° |
| 2026-05-06 19:15 | 51.37441 | 10.72654 | 32656 ft | 510 kts | 46° |
| 2026-05-06 19:16 | 51.39829 | 10.76677 | 32752 ft | 514 kts | 47° |
| 2026-05-06 19:16 | 51.44746 | 10.84982 | 32791 ft | 512 kts | 47° |
| 2026-05-06 19:17 | 51.49627 | 10.93254 | 32798 ft | 509 kts | 47° |
| 2026-05-06 19:17 | 51.54489 | 11.01521 | 32816 ft | 507 kts | 47° |
| 2026-05-06 19:18 | 51.59304 | 11.09737 | 32801 ft | 506 kts | 47° |
| 2026-05-06 19:18 | 51.64129 | 11.17726 | 32777 ft | 505 kts | 41° |
| 2026-05-06 19:19 | 51.69768 | 11.24491 | 32838 ft | 507 kts | 33° |